F/V Renaissance II — FMEW — position and weather

sailwx.info

Track history (hours):
 
Tides and Currents Weather Stations Pressure Air Temp Water Temp Dewpoint Dewpoint Depression Visibility Wind Speed Wind Dir Waves Ship Positions

F/V Renaissance II

Last reported at 2016-Dec-09 08:33 UTC. Time now 2016-Dec-09 09:38 UTC.
Position N 46°15' W 001°42'.

Length 18 m.

Type: Fishing. MMSI: 228216600.

Date/timePositionNaut miles runAvg speedWind from/ knotsBaromVisibWave heightAir tempDewpointWater temp
2016-Dec-09 08:33N 46°15' W 001°42'7 7.5
2016-Dec-09 07:34N 46°21' W 001°45'9 8.5
2016-Dec-09 06:33N 46°30' W 001°47'0 0.0
2016-Dec-09 05:33N 46°30' W 001°47'0 0.0
2016-Dec-09 04:33N 46°30' W 001°47'0 0.0
2016-Dec-09 03:33N 46°30' W 001°47'0 0.0
2016-Dec-09 02:34N 46°30' W 001°47'0 0.0
2016-Dec-09 01:33N 46°30' W 001°47'0 0.0
2016-Dec-09 00:33N 46°30' W 001°47'0 0.0
2016-Dec-08 23:33N 46°30' W 001°47'0 0.0
2016-Dec-08 22:33N 46°30' W 001°47'0 0.0
2016-Dec-08 21:33N 46°30' W 001°47'0 0.0
2016-Dec-08 20:33N 46°30' W 001°47'0 0.0
2016-Dec-08 19:33N 46°30' W 001°47'0 0.0
2016-Dec-08 18:33N 46°30' W 001°47'0 0.4
2016-Dec-08 17:33N 46°30' W 001°48'1310.2
2016-Dec-08 16:19N 46°17' W 001°46'2 2.0
2016-Dec-08 15:30N 46°16' W 001°45'2 1.6
2016-Dec-08 14:33N 46°15' W 001°47'1 0.5
2016-Dec-08 13:33N 46°15' W 001°47'1 0.8
2016-Dec-08 12:33N 46°15' W 001°48'1 0.7
2016-Dec-08 11:33N 46°14' W 001°48'1 0.6
2016-Dec-08 10:33N 46°14' W 001°47'5 5.0
2016-Dec-08 09:33N 46°10' W 001°51'1 1.4
2016-Dec-08 08:32N 46°11' W 001°52'1 0.6
2016-Dec-08 07:31N 46°11' W 001°53'8 8.2
2016-Dec-08 06:34N 46°19' W 001°52'9 8.6
2016-Dec-08 05:33N 46°27' W 001°48'3 2.9
2016-Dec-08 04:33N 46°30' W 001°47'0 0.0
2016-Dec-08 03:33N 46°30' W 001°47'0 0.0
2016-Dec-08 02:33N 46°30' W 001°47'0 0.0
2016-Dec-08 01:33N 46°30' W 001°47'0 0.0
2016-Dec-08 00:34N 46°30' W 001°47'0 0.0
2016-Dec-07 23:33N 46°30' W 001°47'0 0.0
2016-Dec-07 22:33N 46°30' W 001°47'0 0.0
2016-Dec-07 21:33N 46°30' W 001°47'0 0.0
2016-Dec-07 20:33N 46°30' W 001°47'0 0.0
2016-Dec-07 19:33N 46°30' W 001°47'4 4.1
2016-Dec-07 18:33N 46°26' W 001°47'1010.4
2016-Dec-07 17:33N 46°15' W 001°49'5 4.6
2016-Dec-07 16:33N 46°11' W 001°50'1 0.5
2016-Dec-07 15:34N 46°11' W 001°51'3 2.8
2016-Dec-07 14:33N 46°09' W 001°53'1 1.4
2016-Dec-07 13:33N 46°08' W 001°51'1 1.1
2016-Dec-07 12:31N 46°09' W 001°51'1 0.8
2016-Dec-07 11:32N 46°09' W 001°52'1 0.8
2016-Dec-07 10:11N 46°09' W 001°50'1 0.8
2016-Dec-07 09:33N 46°10' W 001°50'0 0.5
2016-Dec-07 08:33N 46°10' W 001°51'2 1.7
2016-Dec-07 07:33N 46°11' W 001°53'7 6.5
2016-Dec-07 06:33N 46°18' W 001°50'9 9.4
2016-Dec-07 05:33N 46°27' W 001°48'3 2.9
2016-Dec-07 04:33N 46°30' W 001°47'0 0.0
2016-Dec-07 03:33N 46°30' W 001°47'0 0.0
2016-Dec-07 02:33N 46°30' W 001°47'0 0.0
2016-Dec-07 01:33N 46°30' W 001°47'0 0.0
2016-Dec-07 00:33N 46°30' W 001°47'0 0.0
2016-Dec-06 23:33N 46°30' W 001°47'0 0.0
2016-Dec-06 22:33N 46°30' W 001°47'0 0.0
2016-Dec-06 21:33N 46°30' W 001°47'0 0.0
2016-Dec-06 20:34N 46°30' W 001°47'0 0.1
2016-Dec-06 18:33N 46°30' W 001°47'4 3.5
2016-Dec-06 17:33N 46°27' W 001°49'1110.5
2016-Dec-06 16:32N 46°17' W 001°55'2 2.0
2016-Dec-06 15:31N 46°15' W 001°54'2 1.5
2016-Dec-06 14:28N 46°13' W 001°55'0 0.5
2016-Dec-06 13:33N 46°13' W 001°55'1 1.1
2016-Dec-06 12:25N 46°13' W 001°53'1 1.4
2016-Dec-06 11:33N 46°12' W 001°52'1 1.2
2016-Dec-06 10:31N 46°12' W 001°53'1 0.6
2016-Dec-06 09:13N 46°13' W 001°53'0 0.6
2016-Dec-06 08:31N 46°13' W 001°53'1 0.9
2016-Dec-06 07:08N 46°14' W 001°54'5 9.2
2016-Dec-06 06:33N 46°19' W 001°52'9 9.3
2016-Dec-06 05:33N 46°28' W 001°47'2 1.8
2016-Dec-06 04:33N 46°30' W 001°47'0 0.0
2016-Dec-06 03:33N 46°30' W 001°47'0 0.0
2016-Dec-06 02:33N 46°30' W 001°47'0 0.0
2016-Dec-06 01:34N 46°30' W 001°47'0 0.0
2016-Dec-06 00:33N 46°30' W 001°47'0 0.0
2016-Dec-05 23:33N 46°30' W 001°47'0 0.0
2016-Dec-05 22:33N 46°30' W 001°47'0 0.0
2016-Dec-05 21:33N 46°30' W 001°47'0 0.0
2016-Dec-05 20:34N 46°30' W 001°47'0 0.0
2016-Dec-05 19:34N 46°30' W 001°47'0 0.1
2016-Dec-05 18:33N 46°30' W 001°47'4 4.3
2016-Dec-05 17:33N 46°26' W 001°50'10 4.5
2016-Dec-05 15:18N 46°17' W 001°57'1 1.0
2016-Dec-05 14:32N 46°17' W 001°58'0 0.3
2016-Dec-05 13:19N 46°17' W 001°58'1 0.9
2016-Dec-05 12:32N 46°17' W 001°58'1 1.3
2016-Dec-05 11:33N 46°17' W 001°57'0 0.1
2016-Dec-05 07:33N 46°17' W 001°57'5 4.8
2016-Dec-05 06:33N 46°21' W 001°54'8 7.7
2016-Dec-05 05:33N 46°28' W 001°48'2 2.3
2016-Dec-05 04:33N 46°30' W 001°47'0 0.0
2016-Dec-05 03:33N 46°30' W 001°47'0 0.0
2016-Dec-05 02:33N 46°30' W 001°47'0 0.0
2016-Dec-05 01:33N 46°30' W 001°47'0 0.0
2016-Dec-05 00:33N 46°30' W 001°47'0 0.0
2016-Dec-04 23:33N 46°30' W 001°47'0 0.0
2016-Dec-04 22:33N 46°30' W 001°47'0 0.0
2016-Dec-04 21:33N 46°30' W 001°47'0 0.0
2016-Dec-04 20:33N 46°30' W 001°47'0 0.0
2016-Dec-04 19:33N 46°30' W 001°47'0 0.0
2016-Dec-04 18:33N 46°30' W 001°47'0 0.1
2016-Dec-04 17:33N 46°30' W 001°47'0 0.2
2016-Dec-04 16:33N 46°30' W 001°47'7 6.6
2016-Dec-04 15:33N 46°27' W 001°56'6 4.7
2016-Dec-04 14:22N 46°25' W 002°03'1 1.1
2016-Dec-04 13:33N 46°25' W 002°02'3 2.8
2016-Dec-04 12:33N 46°25' W 001°58'1 0.6
2016-Dec-04 11:33N 46°26' W 001°59'1 1.5
2016-Dec-04 10:33N 46°25' W 002°00'1 1.5
2016-Dec-04 09:33N 46°26' W 002°02'1 0.6
2016-Dec-04 08:33N 46°26' W 002°03'1 1.1
2016-Dec-04 07:31N 46°27' W 002°02'4 3.8
2016-Dec-04 06:33N 46°27' W 001°56'7 6.8
2016-Dec-04 05:33N 46°30' W 001°47'0 0.0
2016-Dec-04 04:33N 46°30' W 001°47'0 0.0
2016-Dec-04 03:33N 46°30' W 001°47'0 0.0
2016-Dec-04 02:33N 46°30' W 001°47'0 0.0
2016-Dec-04 01:33N 46°30' W 001°47'0 0.0
2016-Dec-04 00:33N 46°30' W 001°47'0 0.0
2016-Dec-03 23:34N 46°30' W 001°47'0 0.0
2016-Dec-03 22:33N 46°30' W 001°47'0 0.0
2016-Dec-03 21:33N 46°30' W 001°47'0 0.0
2016-Dec-03 20:33N 46°30' W 001°47'0 0.0
2016-Dec-03 19:33N 46°30' W 001°47'0 0.0
2016-Dec-03 18:33N 46°30' W 001°47'0 0.1
2016-Dec-03 17:33N 46°30' W 001°47'3 3.0
2016-Dec-03 16:33N 46°28' W 001°50'6 6.2
2016-Dec-03 15:33N 46°25' W 001°59'0 0.4
2016-Dec-03 14:34N 46°25' W 001°59'2 2.3
2016-Dec-03 13:33N 46°25' W 002°02'1 0.7
2016-Dec-03 12:33N 46°25' W 002°03'1 0.7
2016-Dec-03 11:33N 46°25' W 002°02'1 1.0
2016-Dec-03 10:33N 46°24' W 002°02'2 2.0
2016-Dec-03 09:33N 46°23' W 001°59'1 1.1
2016-Dec-03 08:34N 46°23' W 002°00'0 0.5
2016-Dec-03 07:33N 46°24' W 002°00'4 4.3
2016-Dec-03 06:33N 46°25' W 001°54'7 6.7
2016-Dec-03 05:33N 46°30' W 001°47'0 0.0
2016-Dec-03 04:33N 46°30' W 001°47'0 0.0
2016-Dec-03 03:33N 46°30' W 001°47'0 0.0
2016-Dec-03 02:33N 46°30' W 001°47'0 0.0
2016-Dec-03 01:33N 46°30' W 001°47'0 0.0
2016-Dec-03 00:33N 46°30' W 001°47'0 0.0
2016-Dec-02 23:33N 46°30' W 001°47'0 0.0
2016-Dec-02 22:33N 46°30' W 001°47'0 0.0
2016-Dec-02 21:33N 46°30' W 001°47'0 0.0
2016-Dec-02 20:33N 46°30' W 001°47'0 0.0
2016-Dec-02 19:33N 46°30' W 001°47'0 0.2
2016-Dec-02 18:33N 46°30' W 001°48'5 5.1
2016-Dec-02 17:33N 46°26' W 001°52'8 8.2
2016-Dec-02 16:33N 46°20' W 002°00'2 1.8
2016-Dec-02 15:33N 46°18' W 001°60'0 0.3
2016-Dec-02 14:31N 46°18' W 001°59'2 0.6
2016-Dec-02 11:32N 46°17' W 001°57'1 0.6
2016-Dec-02 10:10N 46°17' W 001°58'1 0.5
2016-Dec-02 09:05N 46°17' W 001°57'1 0.9
2016-Dec-02 07:32N 46°16' W 001°56'8 8.6
2016-Dec-02 06:33N 46°24' W 001°52'7 6.8
2016-Dec-02 05:33N 46°30' W 001°47'0 0.0
2016-Dec-02 04:33N 46°30' W 001°47'0 0.0
2016-Dec-02 03:33N 46°30' W 001°47'0 0.0
2016-Dec-02 02:33N 46°30' W 001°47'0 0.0
2016-Dec-02 01:33N 46°30' W 001°47'0 0.0
2016-Dec-02 00:33N 46°30' W 001°47'0 0.0
2016-Dec-01 23:33N 46°30' W 001°47'0 0.0
2016-Dec-01 22:33N 46°30' W 001°47'0 0.0
2016-Dec-01 21:33N 46°30' W 001°47'0 0.0
2016-Dec-01 20:33N 46°30' W 001°47'0 0.0
2016-Dec-01 19:33N 46°30' W 001°47'0 0.0
2016-Dec-01 18:33N 46°30' W 001°47'3 3.4
2016-Dec-01 17:33N 46°27' W 001°49'9 9.2
2016-Dec-01 16:33N 46°19' W 001°57'3 2.8
2016-Dec-01 15:21N 46°16' W 001°58'2 1.7
2016-Dec-01 14:12N 46°14' W 001°56'3 1.2
2016-Dec-01 11:28N 46°14' W 002°01'2 0.4
2016-Dec-01 07:19N 46°14' W 001°58'6 7.5
2016-Dec-01 06:33N 46°19' W 001°54'9 9.1
2016-Dec-01 05:33N 46°27' W 001°48'3 2.8
2016-Dec-01 04:33N 46°30' W 001°47'0 0.0
2016-Dec-01 03:33N 46°30' W 001°47'0 0.0
2016-Dec-01 02:33N 46°30' W 001°47'0 0.0
2016-Dec-01 01:33N 46°30' W 001°47'0 0.0
2016-Dec-01 00:33N 46°30' W 001°47'0 0.0
2016-Nov-30 23:33N 46°30' W 001°47'0 0.0
2016-Nov-30 22:33N 46°30' W 001°47'0 0.0
2016-Nov-30 21:33N 46°30' W 001°47'0 0.0
2016-Nov-30 20:33N 46°30' W 001°47'0 0.0
2016-Nov-30 19:33N 46°30' W 001°47'0 0.1
2016-Nov-30 18:33N 46°30' W 001°47'7 7.2
2016-Nov-30 17:33N 46°24' W 001°52'10 0.9
2016-Nov-30 06:25N 46°15' W 001°58'7 7.8
2016-Nov-30 05:33N 46°20' W 001°52'8 8.3
2016-Nov-30 04:33N 46°28' W 001°48'2 2.1
2016-Nov-30 03:33N 46°30' W 001°47'0 0.0
2016-Nov-30 02:33N 46°30' W 001°47'0 0.0
2016-Nov-30 01:33N 46°30' W 001°47'0 0.0
2016-Nov-30 00:33N 46°30' W 001°47'0 0.0
2016-Nov-29 23:33N 46°30' W 001°47'0 0.0
2016-Nov-29 22:33N 46°30' W 001°47'0 0.0
2016-Nov-29 21:33N 46°30' W 001°47'0 0.0
2016-Nov-29 20:33N 46°30' W 001°47'0 0.1
2016-Nov-29 19:33N 46°30' W 001°47'2 1.8
2016-Nov-29 18:33N 46°28' W 001°49'11 9.6
2016-Nov-29 17:26N 46°27' W 002°04'  
Track history (hours):
 
Tides and Currents Weather Stations Pressure Air Temp Water Temp Dewpoint Dewpoint Depression Visibility Wind Speed Wind Dir Waves Ship Positions

F/V Renaissance II

Last reported at 2016-Dec-09 08:33 UTC. Time now 2016-Dec-09 09:38 UTC.
Position N 46°15' W 001°42'.

Length 18 m.

Type: Fishing. MMSI: 228216600.

Date/timePositionNaut miles runAvg speedWind from/ knotsBaromVisibWave heightAir tempDewpointWater temp
2016-Dec-09 08:33N 46°15' W 001°42'7 7.5
2016-Dec-09 07:34N 46°21' W 001°45'9 8.5
2016-Dec-09 06:33N 46°30' W 001°47'0 0.0
2016-Dec-09 05:33N 46°30' W 001°47'0 0.0
2016-Dec-09 04:33N 46°30' W 001°47'0 0.0
2016-Dec-09 03:33N 46°30' W 001°47'0 0.0
2016-Dec-09 02:34N 46°30' W 001°47'0 0.0
2016-Dec-09 01:33N 46°30' W 001°47'0 0.0
2016-Dec-09 00:33N 46°30' W 001°47'0 0.0
2016-Dec-08 23:33N 46°30' W 001°47'0 0.0
2016-Dec-08 22:33N 46°30' W 001°47'0 0.0
2016-Dec-08 21:33N 46°30' W 001°47'0 0.0
2016-Dec-08 20:33N 46°30' W 001°47'0 0.0
2016-Dec-08 19:33N 46°30' W 001°47'0 0.0
2016-Dec-08 18:33N 46°30' W 001°47'0 0.4
2016-Dec-08 17:33N 46°30' W 001°48'1310.2
2016-Dec-08 16:19N 46°17' W 001°46'2 2.0
2016-Dec-08 15:30N 46°16' W 001°45'2 1.6
2016-Dec-08 14:33N 46°15' W 001°47'1 0.5
2016-Dec-08 13:33N 46°15' W 001°47'1 0.8
2016-Dec-08 12:33N 46°15' W 001°48'1 0.7
2016-Dec-08 11:33N 46°14' W 001°48'1 0.6
2016-Dec-08 10:33N 46°14' W 001°47'5 5.0
2016-Dec-08 09:33N 46°10' W 001°51'1 1.4
2016-Dec-08 08:32N 46°11' W 001°52'1 0.6
2016-Dec-08 07:31N 46°11' W 001°53'8 8.2
2016-Dec-08 06:34N 46°19' W 001°52'9 8.6
2016-Dec-08 05:33N 46°27' W 001°48'3 2.9
2016-Dec-08 04:33N 46°30' W 001°47'0 0.0
2016-Dec-08 03:33N 46°30' W 001°47'0 0.0
2016-Dec-08 02:33N 46°30' W 001°47'0 0.0
2016-Dec-08 01:33N 46°30' W 001°47'0 0.0
2016-Dec-08 00:34N 46°30' W 001°47'0 0.0
2016-Dec-07 23:33N 46°30' W 001°47'0 0.0
2016-Dec-07 22:33N 46°30' W 001°47'0 0.0
2016-Dec-07 21:33N 46°30' W 001°47'0 0.0
2016-Dec-07 20:33N 46°30' W 001°47'0 0.0
2016-Dec-07 19:33N 46°30' W 001°47'4 4.1
2016-Dec-07 18:33N 46°26' W 001°47'1010.4
2016-Dec-07 17:33N 46°15' W 001°49'5 4.6
2016-Dec-07 16:33N 46°11' W 001°50'1 0.5
2016-Dec-07 15:34N 46°11' W 001°51'3 2.8
2016-Dec-07 14:33N 46°09' W 001°53'1 1.4
2016-Dec-07 13:33N 46°08' W 001°51'1 1.1
2016-Dec-07 12:31N 46°09' W 001°51'1 0.8
2016-Dec-07 11:32N 46°09' W 001°52'1 0.8
2016-Dec-07 10:11N 46°09' W 001°50'1 0.8
2016-Dec-07 09:33N 46°10' W 001°50'0 0.5
2016-Dec-07 08:33N 46°10' W 001°51'2 1.7
2016-Dec-07 07:33N 46°11' W 001°53'7 6.5
2016-Dec-07 06:33N 46°18' W 001°50'9 9.4
2016-Dec-07 05:33N 46°27' W 001°48'3 2.9
2016-Dec-07 04:33N 46°30' W 001°47'0 0.0
2016-Dec-07 03:33N 46°30' W 001°47'0 0.0
2016-Dec-07 02:33N 46°30' W 001°47'0 0.0
2016-Dec-07 01:33N 46°30' W 001°47'0 0.0
2016-Dec-07 00:33N 46°30' W 001°47'0 0.0
2016-Dec-06 23:33N 46°30' W 001°47'0 0.0
2016-Dec-06 22:33N 46°30' W 001°47'0 0.0
2016-Dec-06 21:33N 46°30' W 001°47'0 0.0
2016-Dec-06 20:34N 46°30' W 001°47'0 0.1
2016-Dec-06 18:33N 46°30' W 001°47'4 3.5
2016-Dec-06 17:33N 46°27' W 001°49'1110.5
2016-Dec-06 16:32N 46°17' W 001°55'2 2.0
2016-Dec-06 15:31N 46°15' W 001°54'2 1.5
2016-Dec-06 14:28N 46°13' W 001°55'0 0.5
2016-Dec-06 13:33N 46°13' W 001°55'1 1.1
2016-Dec-06 12:25N 46°13' W 001°53'1 1.4
2016-Dec-06 11:33N 46°12' W 001°52'1 1.2
2016-Dec-06 10:31N 46°12' W 001°53'1 0.6
2016-Dec-06 09:13N 46°13' W 001°53'0 0.6
2016-Dec-06 08:31N 46°13' W 001°53'1 0.9
2016-Dec-06 07:08N 46°14' W 001°54'5 9.2
2016-Dec-06 06:33N 46°19' W 001°52'9 9.3
2016-Dec-06 05:33N 46°28' W 001°47'2 1.8
2016-Dec-06 04:33N 46°30' W 001°47'0 0.0
2016-Dec-06 03:33N 46°30' W 001°47'0 0.0
2016-Dec-06 02:33N 46°30' W 001°47'0 0.0
2016-Dec-06 01:34N 46°30' W 001°47'0 0.0
2016-Dec-06 00:33N 46°30' W 001°47'0 0.0
2016-Dec-05 23:33N 46°30' W 001°47'0 0.0
2016-Dec-05 22:33N 46°30' W 001°47'0 0.0
2016-Dec-05 21:33N 46°30' W 001°47'0 0.0
2016-Dec-05 20:34N 46°30' W 001°47'0 0.0
2016-Dec-05 19:34N 46°30' W 001°47'0 0.1
2016-Dec-05 18:33N 46°30' W 001°47'4 4.3
2016-Dec-05 17:33N 46°26' W 001°50'10 4.5
2016-Dec-05 15:18N 46°17' W 001°57'1 1.0
2016-Dec-05 14:32N 46°17' W 001°58'0 0.3
2016-Dec-05 13:19N 46°17' W 001°58'1 0.9
2016-Dec-05 12:32N 46°17' W 001°58'1 1.3
2016-Dec-05 11:33N 46°17' W 001°57'0 0.1
2016-Dec-05 07:33N 46°17' W 001°57'5 4.8
2016-Dec-05 06:33N 46°21' W 001°54'8 7.7
2016-Dec-05 05:33N 46°28' W 001°48'2 2.3
2016-Dec-05 04:33N 46°30' W 001°47'0 0.0
2016-Dec-05 03:33N 46°30' W 001°47'0 0.0
2016-Dec-05 02:33N 46°30' W 001°47'0 0.0
2016-Dec-05 01:33N 46°30' W 001°47'0 0.0
2016-Dec-05 00:33N 46°30' W 001°47'0 0.0
2016-Dec-04 23:33N 46°30' W 001°47'0 0.0
2016-Dec-04 22:33N 46°30' W 001°47'0 0.0
2016-Dec-04 21:33N 46°30' W 001°47'0 0.0
2016-Dec-04 20:33N 46°30' W 001°47'0 0.0
2016-Dec-04 19:33N 46°30' W 001°47'0 0.0
2016-Dec-04 18:33N 46°30' W 001°47'0 0.1
2016-Dec-04 17:33N 46°30' W 001°47'0 0.2
2016-Dec-04 16:33N 46°30' W 001°47'7 6.6
2016-Dec-04 15:33N 46°27' W 001°56'6 4.7
2016-Dec-04 14:22N 46°25' W 002°03'1 1.1
2016-Dec-04 13:33N 46°25' W 002°02'3 2.8
2016-Dec-04 12:33N 46°25' W 001°58'1 0.6
2016-Dec-04 11:33N 46°26' W 001°59'1 1.5
2016-Dec-04 10:33N 46°25' W 002°00'1 1.5
2016-Dec-04 09:33N 46°26' W 002°02'1 0.6
2016-Dec-04 08:33N 46°26' W 002°03'1 1.1
2016-Dec-04 07:31N 46°27' W 002°02'4 3.8
2016-Dec-04 06:33N 46°27' W 001°56'7 6.8
2016-Dec-04 05:33N 46°30' W 001°47'0 0.0
2016-Dec-04 04:33N 46°30' W 001°47'0 0.0
2016-Dec-04 03:33N 46°30' W 001°47'0 0.0
2016-Dec-04 02:33N 46°30' W 001°47'0 0.0
2016-Dec-04 01:33N 46°30' W 001°47'0 0.0
2016-Dec-04 00:33N 46°30' W 001°47'0 0.0
2016-Dec-03 23:34N 46°30' W 001°47'0 0.0
2016-Dec-03 22:33N 46°30' W 001°47'0 0.0
2016-Dec-03 21:33N 46°30' W 001°47'0 0.0
2016-Dec-03 20:33N 46°30' W 001°47'0 0.0
2016-Dec-03 19:33N 46°30' W 001°47'0 0.0
2016-Dec-03 18:33N 46°30' W 001°47'0 0.1
2016-Dec-03 17:33N 46°30' W 001°47'3 3.0
2016-Dec-03 16:33N 46°28' W 001°50'6 6.2
2016-Dec-03 15:33N 46°25' W 001°59'0 0.4
2016-Dec-03 14:34N 46°25' W 001°59'2 2.3
2016-Dec-03 13:33N 46°25' W 002°02'1 0.7
2016-Dec-03 12:33N 46°25' W 002°03'1 0.7
2016-Dec-03 11:33N 46°25' W 002°02'1 1.0
2016-Dec-03 10:33N 46°24' W 002°02'2 2.0
2016-Dec-03 09:33N 46°23' W 001°59'1 1.1
2016-Dec-03 08:34N 46°23' W 002°00'0 0.5
2016-Dec-03 07:33N 46°24' W 002°00'4 4.3
2016-Dec-03 06:33N 46°25' W 001°54'7 6.7
2016-Dec-03 05:33N 46°30' W 001°47'0 0.0
2016-Dec-03 04:33N 46°30' W 001°47'0 0.0
2016-Dec-03 03:33N 46°30' W 001°47'0 0.0
2016-Dec-03 02:33N 46°30' W 001°47'0 0.0
2016-Dec-03 01:33N 46°30' W 001°47'0 0.0
2016-Dec-03 00:33N 46°30' W 001°47'0 0.0
2016-Dec-02 23:33N 46°30' W 001°47'0 0.0
2016-Dec-02 22:33N 46°30' W 001°47'0 0.0
2016-Dec-02 21:33N 46°30' W 001°47'0 0.0
2016-Dec-02 20:33N 46°30' W 001°47'0 0.0
2016-Dec-02 19:33N 46°30' W 001°47'0 0.2
2016-Dec-02 18:33N 46°30' W 001°48'5 5.1
2016-Dec-02 17:33N 46°26' W 001°52'8 8.2
2016-Dec-02 16:33N 46°20' W 002°00'2 1.8
2016-Dec-02 15:33N 46°18' W 001°60'0 0.3
2016-Dec-02 14:31N 46°18' W 001°59'2 0.6
2016-Dec-02 11:32N 46°17' W 001°57'1 0.6
2016-Dec-02 10:10N 46°17' W 001°58'1 0.5
2016-Dec-02 09:05N 46°17' W 001°57'1 0.9
2016-Dec-02 07:32N 46°16' W 001°56'8 8.6
2016-Dec-02 06:33N 46°24' W 001°52'7 6.8
2016-Dec-02 05:33N 46°30' W 001°47'0 0.0
2016-Dec-02 04:33N 46°30' W 001°47'0 0.0
2016-Dec-02 03:33N 46°30' W 001°47'0 0.0
2016-Dec-02 02:33N 46°30' W 001°47'0 0.0
2016-Dec-02 01:33N 46°30' W 001°47'0 0.0
2016-Dec-02 00:33N 46°30' W 001°47'0 0.0
2016-Dec-01 23:33N 46°30' W 001°47'0 0.0
2016-Dec-01 22:33N 46°30' W 001°47'0 0.0
2016-Dec-01 21:33N 46°30' W 001°47'0 0.0
2016-Dec-01 20:33N 46°30' W 001°47'0 0.0
2016-Dec-01 19:33N 46°30' W 001°47'0 0.0
2016-Dec-01 18:33N 46°30' W 001°47'3 3.4
2016-Dec-01 17:33N 46°27' W 001°49'9 9.2
2016-Dec-01 16:33N 46°19' W 001°57'3 2.8
2016-Dec-01 15:21N 46°16' W 001°58'2 1.7
2016-Dec-01 14:12N 46°14' W 001°56'3 1.2
2016-Dec-01 11:28N 46°14' W 002°01'2 0.4
2016-Dec-01 07:19N 46°14' W 001°58'6 7.5
2016-Dec-01 06:33N 46°19' W 001°54'9 9.1
2016-Dec-01 05:33N 46°27' W 001°48'3 2.8
2016-Dec-01 04:33N 46°30' W 001°47'0 0.0
2016-Dec-01 03:33N 46°30' W 001°47'0 0.0
2016-Dec-01 02:33N 46°30' W 001°47'0 0.0
2016-Dec-01 01:33N 46°30' W 001°47'0 0.0
2016-Dec-01 00:33N 46°30' W 001°47'0 0.0
2016-Nov-30 23:33N 46°30' W 001°47'0 0.0
2016-Nov-30 22:33N 46°30' W 001°47'0 0.0
2016-Nov-30 21:33N 46°30' W 001°47'0 0.0
2016-Nov-30 20:33N 46°30' W 001°47'0 0.0
2016-Nov-30 19:33N 46°30' W 001°47'0 0.1
2016-Nov-30 18:33N 46°30' W 001°47'7 7.2
2016-Nov-30 17:33N 46°24' W 001°52'10 0.9
2016-Nov-30 06:25N 46°15' W 001°58'7 7.8
2016-Nov-30 05:33N 46°20' W 001°52'8 8.3
2016-Nov-30 04:33N 46°28' W 001°48'2 2.1
2016-Nov-30 03:33N 46°30' W 001°47'0 0.0
2016-Nov-30 02:33N 46°30' W 001°47'0 0.0
2016-Nov-30 01:33N 46°30' W 001°47'0 0.0
2016-Nov-30 00:33N 46°30' W 001°47'0 0.0
2016-Nov-29 23:33N 46°30' W 001°47'0 0.0
2016-Nov-29 22:33N 46°30' W 001°47'0 0.0
2016-Nov-29 21:33N 46°30' W 001°47'0 0.0
2016-Nov-29 20:33N 46°30' W 001°47'0 0.1
2016-Nov-29 19:33N 46°30' W 001°47'2 1.8
2016-Nov-29 18:33N 46°28' W 001°49'11 9.6
2016-Nov-29 17:26N 46°27' W 002°04'  

Dump ship's entire track history